Time;durP1;ratioP1;P1;durP2;ratioP2;P2;SDS_P1;SDS_P2;PMS_P1;PMS_P2;Temp;Humidity;BMP_temperature;BMP_pressure;BME280_temperature;BME280_humidity;BME280_pressure;Samples;Min_cycle;Max_cycle;Signal;HPM_P1;HPM_P2
2021/10/14 00:01:39;;;;;;;9.02;2.33;;;;;;;;;;5148508;27;20475;-73
2021/10/14 00:04:05;;;;;;;6.28;2.20;;;;;;;;;;5147265;27;20035;-73
2021/10/14 00:06:31;;;;;;;4.43;2.20;;;;;;;;;;5148697;27;20026;-73
2021/10/14 00:08:57;;;;;;;13.55;2.50;;;;;;;;;;5148816;27;20019;-73
2021/10/14 00:11:24;;;;;;;2.78;1.60;;;;;;;;;;5148369;27;20030;-73
2021/10/14 00:13:50;;;;;;;7.63;1.70;;;;;;;;;;5147153;27;20019;-73
2021/10/14 00:16:16;;;;;;;4.50;1.50;;;;;;;;;;5148423;27;20094;-72
2021/10/14 00:18:43;;;;;;;4.60;2.20;;;;;;;;;;5148542;27;20393;-72
2021/10/14 00:21:09;;;;;;;2.83;1.65;;;;;;;;;;5149000;27;20030;-72
2021/10/14 00:23:35;;;;;;;3.45;1.77;;;;;;;;;;5148279;27;20060;-73
2021/10/14 00:26:01;;;;;;;4.70;2.17;;;;;;;;;;5146640;27;20027;-72
2021/10/14 00:28:27;;;;;;;4.13;2.10;;;;;;;;;;5148575;27;20574;-72
2021/10/14 00:30:54;;;;;;;5.32;2.05;;;;;;;;;;5148692;27;20130;-73
2021/10/14 00:33:20;;;;;;;3.80;2.00;;;;;;;;;;5147953;27;20586;-73
2021/10/14 00:35:46;;;;;;;5.82;1.70;;;;;;;;;;5148188;27;20583;-72
2021/10/14 00:38:12;;;;;;;7.55;2.92;;;;;;;;;;5146518;27;20458;-72
2021/10/14 00:40:38;;;;;;;7.60;2.33;;;;;;;;;;5147905;27;20045;-72
2021/10/14 00:43:04;;;;;;;3.58;1.70;;;;;;;;;;5147943;27;20423;-73
2021/10/14 00:45:31;;;;;;;3.42;1.48;;;;;;;;;;5148143;27;20046;-73
2021/10/14 00:47:57;;;;;;;3.15;1.60;;;;;;;;;;5148260;27;20102;-73
2021/10/14 00:50:23;;;;;;;3.38;1.45;;;;;;;;;;5150116;27;20038;-73
2021/10/14 00:52:52;;;;;;;6.80;1.90;;;;;;;;;;5150794;27;20458;-73
2021/10/14 00:55:18;;;;;;;4.72;1.80;;;;;;;;;;5152156;27;20386;-73
2021/10/14 00:57:44;;;;;;;4.57;1.83;;;;;;;;;;5151928;27;20435;-73
2021/10/14 01:00:11;;;;;;;4.57;1.90;;;;;;;;;;5152295;27;20022;-73
2021/10/14 01:02:37;;;;;;;5.88;1.75;;;;;;;;;;5150750;27;20074;-73
2021/10/14 01:05:04;;;;;;;5.22;2.88;;;;;;;;;;5152303;27;20029;-73
2021/10/14 01:07:30;;;;;;;3.45;1.92;;;;;;;;;;5152117;27;20095;-73
2021/10/14 01:09:56;;;;;;;6.65;2.15;;;;;;;;;;5151705;27;20019;-73
2021/10/14 01:12:23;;;;;;;8.13;2.30;;;;;;;;;;5152118;27;20035;-73
2021/10/14 01:14:49;;;;;;;7.57;2.25;;;;;;;;;;5151762;27;20494;-73
2021/10/14 01:17:15;;;;;;;5.70;2.35;;;;;;;;;;5150311;27;20423;-73
2021/10/14 01:19:42;;;;;;;4.57;2.30;;;;;;;;;;5151548;27;20454;-73
2021/10/14 01:22:09;;;;;;;4.80;2.05;;;;;;;;;;5151585;27;20410;-73
2021/10/14 01:24:35;;;;;;;4.20;2.10;;;;;;;;;;5151407;27;20023;-73
2021/10/14 01:27:05;;;;;;;6.95;2.22;;;;;;;;;;5150474;27;20124;-73
2021/10/14 01:29:31;;;;;;;6.30;2.30;;;;;;;;;;5151907;27;20040;-73
2021/10/14 01:31:59;;;;;;;3.40;2.13;;;;;;;;;;5151498;27;20482;-73
2021/10/14 01:34:25;;;;;;;6.38;2.90;;;;;;;;;;5151338;27;20102;-72
2021/10/14 01:36:51;;;;;;;6.72;2.10;;;;;;;;;;5149877;27;20080;-72
2021/10/14 01:39:17;;;;;;;5.80;2.33;;;;;;;;;;5151562;27;20029;-73
2021/10/14 01:41:47;;;;;;;5.85;2.55;;;;;;;;;;5151680;27;20022;-73
2021/10/14 01:44:14;;;;;;;4.75;2.85;;;;;;;;;;5151126;27;20030;-73
2021/10/14 01:46:40;;;;;;;4.60;2.80;;;;;;;;;;5151631;27;20015;-73
2021/10/14 01:49:06;;;;;;;12.88;2.78;;;;;;;;;;5149740;27;20098;-73
2021/10/14 01:51:33;;;;;;;6.70;2.75;;;;;;;;;;5151098;27;20035;-73
2021/10/14 01:53:59;;;;;;;4.63;2.80;;;;;;;;;;5151289;27;20478;-73
2021/10/14 01:56:25;;;;;;;5.30;2.70;;;;;;;;;;5151463;27;20029;-73
2021/10/14 01:58:51;;;;;;;5.40;2.35;;;;;;;;;;5150830;27;20054;-73
2021/10/14 02:01:17;;;;;;;4.15;2.45;;;;;;;;;;5147977;27;20041;-73
2021/10/14 02:03:44;;;;;;;3.75;2.20;;;;;;;;;;5151113;27;20068;-73
2021/10/14 02:06:10;;;;;;;7.88;2.80;;;;;;;;;;5149910;27;20022;-73
2021/10/14 02:08:36;;;;;;;5.65;2.50;;;;;;;;;;5150928;27;20046;-73
2021/10/14 02:11:02;;;;;;;6.30;2.20;;;;;;;;;;5150249;27;20022;-73
2021/10/14 02:13:28;;;;;;;6.18;2.00;;;;;;;;;;5149299;27;20023;-73
2021/10/14 02:15:54;;;;;;;10.80;3.08;;;;;;;;;;5151127;27;20023;-73
2021/10/14 02:18:20;;;;;;;7.70;3.47;;;;;;;;;;5150634;27;20383;-72
2021/10/14 02:20:46;;;;;;;5.63;2.47;;;;;;;;;;5150664;27;20037;-72
2021/10/14 02:23:13;;;;;;;3.53;1.65;;;;;;;;;;5150649;27;20424;-72
2021/10/14 02:25:39;;;;;;;4.30;1.35;;;;;;;;;;5150760;27;20019;-72
2021/10/14 02:28:05;;;;;;;4.18;1.25;;;;;;;;;;5148739;27;20075;-72
2021/10/14 02:30:32;;;;;;;5.80;1.60;;;;;;;;;;5150056;27;20037;-72
2021/10/14 02:32:58;;;;;;;5.90;2.00;;;;;;;;;;5150071;27;20375;-72
2021/10/14 02:35:25;;;;;;;4.55;2.33;;;;;;;;;;5150194;27;20070;-72
2021/10/14 02:37:51;;;;;;;5.00;1.85;;;;;;;;;;5146991;27;20382;-73
2021/10/14 02:40:17;;;;;;;6.38;2.25;;;;;;;;;;5149974;27;20022;-72
2021/10/14 02:42:43;;;;;;;4.88;1.75;;;;;;;;;;5150009;27;20023;-72
2021/10/14 02:45:09;;;;;;;9.90;2.40;;;;;;;;;;5149917;27;20059;-72
2021/10/14 02:47:36;;;;;;;12.40;2.60;;;;;;;;;;5131418;27;20027;-72
2021/10/14 02:50:02;;;;;;;10.40;2.85;;;;;;;;;;5129184;27;20029;-73
2021/10/14 02:52:28;;;;;;;9.85;2.72;;;;;;;;;;5129054;27;20394;-72
2021/10/14 02:54:54;;;;;;;11.00;2.92;;;;;;;;;;5127740;27;20035;-72
2021/10/14 02:57:20;;;;;;;7.68;2.50;;;;;;;;;;5129006;27;20071;-73
2021/10/14 02:59:46;;;;;;;7.50;2.05;;;;;;;;;;5129280;27;20053;-72
2021/10/14 03:02:12;;;;;;;8.93;2.22;;;;;;;;;;5128134;27;20023;-73
2021/10/14 03:04:39;;;;;;;9.32;2.78;;;;;;;;;;5126147;27;20037;-72
2021/10/14 03:07:05;;;;;;;7.63;2.42;;;;;;;;;;5124802;27;20108;-73
2021/10/14 03:09:31;;;;;;;6.03;2.22;;;;;;;;;;5124791;27;20015;-73
2021/10/14 03:11:57;;;;;;;7.95;2.30;;;;;;;;;;5125713;27;20440;-73
2021/10/14 03:14:23;;;;;;;5.88;1.88;;;;;;;;;;5123902;27;20068;-73
2021/10/14 03:16:49;;;;;;;5.32;1.83;;;;;;;;;;5126376;27;20205;-73
2021/10/14 03:19:16;;;;;;;5.10;1.60;;;;;;;;;;5125911;27;20019;-73
2021/10/14 03:21:42;;;;;;;5.13;2.10;;;;;;;;;;5125576;27;20057;-73
2021/10/14 03:24:08;;;;;;;5.57;2.05;;;;;;;;;;5124556;27;20023;-73
2021/10/14 03:26:34;;;;;;;6.68;2.22;;;;;;;;;;5126420;27;20503;-73
2021/10/14 03:29:00;;;;;;;5.63;2.20;;;;;;;;;;5125527;27;20012;-72
2021/10/14 03:31:26;;;;;;;4.88;1.85;;;;;;;;;;5125126;27;20103;-73
2021/10/14 03:33:53;;;;;;;8.30;2.60;;;;;;;;;;5126090;27;20030;-73
2021/10/14 03:36:19;;;;;;;4.25;1.83;;;;;;;;;;5122926;27;20452;-72
2021/10/14 03:38:45;;;;;;;6.35;1.90;;;;;;;;;;5125751;27;20027;-72
2021/10/14 03:41:11;;;;;;;5.88;1.63;;;;;;;;;;5125773;27;20026;-72
2021/10/14 03:43:37;;;;;;;3.33;1.80;;;;;;;;;;5124140;27;20019;-73
2021/10/14 03:46:03;;;;;;;4.55;1.65;;;;;;;;;;5125537;27;20420;-73
2021/10/14 03:48:30;;;;;;;2.75;2.03;;;;;;;;;;5125327;27;20612;-72
2021/10/14 03:50:56;;;;;;;5.50;1.90;;;;;;;;;;5125720;27;20049;-73
2021/10/14 03:53:22;;;;;;;8.38;1.92;;;;;;;;;;5126082;27;20037;-73
2021/10/14 03:55:48;;;;;;;7.22;1.80;;;;;;;;;;5123815;27;20554;-73
2021/10/14 03:58:14;;;;;;;7.15;2.10;;;;;;;;;;5125197;27;20046;-73
2021/10/14 04:00:41;;;;;;;4.82;2.30;;;;;;;;;;5125730;27;20030;-73
2021/10/14 04:03:08;;;;;;;5.45;2.58;;;;;;;;;;5125507;27;20130;-73
2021/10/14 04:05:34;;;;;;;4.47;2.20;;;;;;;;;;5124805;27;20414;-73
2021/10/14 04:08:00;;;;;;;4.00;2.33;;;;;;;;;;5123711;27;20026;-73
2021/10/14 04:10:26;;;;;;;6.78;3.28;;;;;;;;;;5125359;27;20038;-73
2021/10/14 04:12:53;;;;;;;5.22;3.03;;;;;;;;;;5124832;27;20019;-73
2021/10/14 04:15:20;;;;;;;6.10;2.90;;;;;;;;;;5123809;27;20038;-73
2021/10/14 04:17:46;;;;;;;6.00;2.80;;;;;;;;;;5125000;27;20023;-73
2021/10/14 04:20:12;;;;;;;5.70;2.80;;;;;;;;;;5124344;27;20027;-73
2021/10/14 04:22:38;;;;;;;5.50;2.55;;;;;;;;;;5125117;27;20081;-73
2021/10/14 04:25:05;;;;;;;6.75;2.78;;;;;;;;;;5124606;27;20087;-72
2021/10/14 04:27:31;;;;;;;6.63;2.85;;;;;;;;;;5123148;28;20038;-73
2021/10/14 04:29:57;;;;;;;4.10;2.53;;;;;;;;;;5124909;28;20019;-73
2021/10/14 04:32:23;;;;;;;4.75;2.80;;;;;;;;;;5124935;28;20041;-73
2021/10/14 04:34:51;;;;;;;9.90;2.67;;;;;;;;;;5123440;28;20019;-73
2021/10/14 04:37:17;;;;;;;6.60;3.10;;;;;;;;;;5125166;27;20050;-72
2021/10/14 04:39:43;;;;;;;6.63;3.00;;;;;;;;;;5124832;28;20375;-73
2021/10/14 04:42:09;;;;;;;7.22;2.60;;;;;;;;;;5125028;28;20098;-73
2021/10/14 04:44:35;;;;;;;4.85;3.33;;;;;;;;;;5122967;28;20394;-73
2021/10/14 04:47:02;;;;;;;4.70;3.17;;;;;;;;;;5124888;28;20549;-73
2021/10/14 04:49:29;;;;;;;8.13;3.05;;;;;;;;;;5125006;27;20058;-73
2021/10/14 04:51:56;;;;;;;4.85;3.25;;;;;;;;;;5124550;28;20110;-73
2021/10/14 04:54:22;;;;;;;6.03;2.70;;;;;;;;;;5124454;27;20386;-73
2021/10/14 04:56:48;;;;;;;4.15;2.78;;;;;;;;;;5123140;28;20191;-73
2021/10/14 04:59:14;;;;;;;4.75;3.13;;;;;;;;;;5124534;28;20127;-73
2021/10/14 05:01:41;;;;;;;6.75;3.45;;;;;;;;;;5125063;28;20019;-73
2021/10/14 05:04:07;;;;;;;4.78;3.42;;;;;;;;;;5125034;28;20038;-73
2021/10/14 05:06:33;;;;;;;5.97;2.97;;;;;;;;;;5124840;28;20023;-73
2021/10/14 05:08:59;;;;;;;4.63;2.97;;;;;;;;;;5121480;28;20372;-72
2021/10/14 05:11:25;;;;;;;8.23;2.92;;;;;;;;;;5124553;28;20031;-73
2021/10/14 05:13:52;;;;;;;4.95;2.97;;;;;;;;;;5124407;28;20068;-73
2021/10/14 05:16:19;;;;;;;5.00;2.95;;;;;;;;;;5124454;28;20425;-73
2021/10/14 05:18:45;;;;;;;4.45;2.55;;;;;;;;;;5124576;28;20030;-73
2021/10/14 05:21:11;;;;;;;6.03;3.08;;;;;;;;;;5124428;28;20023;-73
2021/10/14 05:23:37;;;;;;;5.07;2.88;;;;;;;;;;5123030;28;20022;-72
2021/10/14 05:26:03;;;;;;;7.35;3.08;;;;;;;;;;5124200;28;20104;-73
2021/10/14 05:28:30;;;;;;;4.28;2.75;;;;;;;;;;5124314;28;20408;-73
2021/10/14 05:30:56;;;;;;;4.78;2.78;;;;;;;;;;5121339;28;20498;-73
2021/10/14 05:33:23;;;;;;;4.95;3.30;;;;;;;;;;5124315;28;20019;-72
2021/10/14 05:35:49;;;;;;;5.13;3.45;;;;;;;;;;5124894;27;20031;-72
2021/10/14 05:38:15;;;;;;;3.40;3.03;;;;;;;;;;5128018;27;20496;-73
2021/10/14 05:40:42;;;;;;;3.58;2.60;;;;;;;;;;5126482;27;20020;-72
2021/10/14 05:43:08;;;;;;;7.80;2.95;;;;;;;;;;5128030;27;20027;-73
2021/10/14 05:45:34;;;;;;;3.78;3.00;;;;;;;;;;5128192;27;20484;-73
2021/10/14 05:48:00;;;;;;;4.60;2.97;;;;;;;;;;5126700;27;20543;-73
2021/10/14 05:50:27;;;;;;;4.47;2.92;;;;;;;;;;5127354;27;20035;-73
2021/10/14 05:52:53;;;;;;;5.80;2.85;;;;;;;;;;5128034;27;20080;-73
2021/10/14 05:55:19;;;;;;;4.32;3.22;;;;;;;;;;5127800;27;20542;-73
2021/10/14 05:57:45;;;;;;;5.03;2.83;;;;;;;;;;5126198;27;20039;-73
2021/10/14 06:00:12;;;;;;;5.25;3.33;;;;;;;;;;5127440;27;20043;-73
2021/10/14 06:02:38;;;;;;;8.18;3.20;;;;;;;;;;5127659;27;20020;-73
2021/10/14 06:05:04;;;;;;;9.95;4.00;;;;;;;;;;5128000;27;20034;-73
2021/10/14 06:07:30;;;;;;;5.97;3.50;;;;;;;;;;5125964;27;20072;-73
2021/10/14 06:09:56;;;;;;;6.57;3.30;;;;;;;;;;5127481;27;20023;-73
2021/10/14 06:12:22;;;;;;;4.00;2.70;;;;;;;;;;5127716;27;20088;-73
2021/10/14 06:14:49;;;;;;;4.78;2.85;;;;;;;;;;5127648;27;20257;-73
2021/10/14 06:17:15;;;;;;;6.65;3.45;;;;;;;;;;5127309;27;20106;-73
2021/10/14 06:19:41;;;;;;;12.68;3.67;;;;;;;;;;5125753;27;20026;-73
2021/10/14 06:22:07;;;;;;;4.63;3.25;;;;;;;;;;5127170;27;20339;-73
2021/10/14 06:24:33;;;;;;;4.38;3.53;;;;;;;;;;5127113;27;20102;-73
2021/10/14 06:26:59;;;;;;;7.15;3.50;;;;;;;;;;5127307;27;20030;-73
2021/10/14 06:29:26;;;;;;;6.30;4.00;;;;;;;;;;5123978;27;20023;-73
2021/10/14 06:31:52;;;;;;;4.72;3.90;;;;;;;;;;5126952;27;20039;-73
2021/10/14 06:34:18;;;;;;;7.32;3.67;;;;;;;;;;5127405;27;20279;-73
2021/10/14 06:36:44;;;;;;;6.68;3.70;;;;;;;;;;5126911;27;20106;-73
2021/10/14 06:39:10;;;;;;;9.10;4.45;;;;;;;;;;5125382;27;20027;-73
2021/10/14 06:41:36;;;;;;;11.05;4.20;;;;;;;;;;5127300;27;20034;-73
2021/10/14 06:44:07;;;;;;;4.90;4.00;;;;;;;;;;5126740;27;20064;-73
2021/10/14 06:46:33;;;;;;;6.40;4.28;;;;;;;;;;5127278;27;20053;-73
2021/10/14 06:48:59;;;;;;;4.70;3.30;;;;;;;;;;5124730;27;20474;-73
2021/10/14 06:51:25;;;;;;;5.05;3.75;;;;;;;;;;5126346;27;20093;-73
2021/10/14 06:53:51;;;;;;;7.38;3.33;;;;;;;;;;5126260;27;20026;-73
2021/10/14 06:56:17;;;;;;;4.43;3.28;;;;;;;;;;5126553;27;20031;-73
2021/10/14 06:58:44;;;;;;;9.63;3.53;;;;;;;;;;5125058;27;20043;-73
2021/10/14 07:01:10;;;;;;;6.88;3.60;;;;;;;;;;5126250;27;20437;-73
2021/10/14 07:03:36;;;;;;;5.72;3.70;;;;;;;;;;5126197;27;20863;-73
2021/10/14 07:06:02;;;;;;;9.02;4.25;;;;;;;;;;5125480;27;20102;-73
2021/10/14 07:08:28;;;;;;;5.88;4.00;;;;;;;;;;5125902;27;20023;-73
2021/10/14 07:10:54;;;;;;;6.63;3.60;;;;;;;;;;5126747;27;20061;-73
2021/10/14 07:13:23;;;;;;;5.72;3.92;;;;;;;;;;5126389;27;20027;-73
2021/10/14 07:15:49;;;;;;;6.45;4.03;;;;;;;;;;5126370;27;20344;-73
2021/10/14 07:18:15;;;;;;;9.55;4.53;;;;;;;;;;5125604;27;20038;-73
2021/10/14 07:20:41;;;;;;;6.03;4.50;;;;;;;;;;5124369;27;20076;-73
2021/10/14 07:23:09;;;;;;;7.93;5.20;;;;;;;;;;5126832;27;20033;-73
2021/10/14 07:25:36;;;;;;;5.50;3.92;;;;;;;;;;5126116;27;20022;-73
2021/10/14 07:28:02;;;;;;;7.93;3.95;;;;;;;;;;5126026;27;20092;-73
2021/10/14 07:30:28;;;;;;;6.50;3.70;;;;;;;;;;5124172;27;20026;-73
2021/10/14 07:32:54;;;;;;;5.97;3.65;;;;;;;;;;5125751;27;20023;-73
2021/10/14 07:35:20;;;;;;;5.38;3.92;;;;;;;;;;5134049;27;20029;-73
2021/10/14 07:37:47;;;;;;;9.70;4.68;;;;;;;;;;5136392;27;20118;-73
2021/10/14 07:40:13;;;;;;;7.30;3.80;;;;;;;;;;5145897;27;20087;-73
2021/10/14 07:42:40;;;;;;;8.10;4.30;;;;;;;;;;5146041;27;20019;-73
2021/10/14 07:45:06;;;;;;;10.02;5.57;;;;;;;;;;5146423;27;20489;-73
2021/10/14 07:47:32;;;;;;;8.25;5.88;;;;;;;;;;5144386;27;20026;-73
2021/10/14 07:49:58;;;;;;;8.02;4.40;;;;;;;;;;5145981;27;20041;-73
2021/10/14 07:52:24;;;;;;;6.18;3.85;;;;;;;;;;5141325;27;20035;-73
2021/10/14 07:54:50;;;;;;;4.72;3.33;;;;;;;;;;5133742;27;20577;-73
2021/10/14 07:57:17;;;;;;;4.30;3.08;;;;;;;;;;5136186;27;20487;-73
2021/10/14 07:59:44;;;;;;;5.25;2.97;;;;;;;;;;5145407;27;20551;-73
2021/10/14 08:02:11;;;;;;;6.55;3.72;;;;;;;;;;5145041;27;20019;-73
2021/10/14 08:04:37;;;;;;;4.47;3.70;;;;;;;;;;5145349;27;20371;-73
2021/10/14 08:07:03;;;;;;;4.95;3.53;;;;;;;;;;5145349;27;20416;-73
2021/10/14 08:09:29;;;;;;;5.40;3.08;;;;;;;;;;5131690;27;20035;-73
2021/10/14 08:11:56;;;;;;;5.20;3.50;;;;;;;;;;5125079;27;20027;-73
2021/10/14 08:14:22;;;;;;;7.00;3.35;;;;;;;;;;5124497;27;20019;-73
2021/10/14 08:16:48;;;;;;;4.68;3.45;;;;;;;;;;5122482;27;20055;-73
2021/10/14 08:19:14;;;;;;;4.22;3.22;;;;;;;;;;5124557;27;20038;-73
2021/10/14 08:21:40;;;;;;;6.32;3.35;;;;;;;;;;5124587;27;20475;-73
2021/10/14 08:24:06;;;;;;;6.03;3.50;;;;;;;;;;5124466;27;20034;-73
2021/10/14 08:26:33;;;;;;;4.90;3.20;;;;;;;;;;5122760;27;20019;-73
2021/10/14 08:28:59;;;;;;;6.25;3.55;;;;;;;;;;5124630;27;20015;-73
2021/10/14 08:31:25;;;;;;;7.70;2.92;;;;;;;;;;5124277;27;20072;-73
2021/10/14 08:33:51;;;;;;;4.50;3.28;;;;;;;;;;5124604;27;20095;-73
2021/10/14 08:36:18;;;;;;;4.57;3.30;;;;;;;;;;5123079;27;20023;-73
2021/10/14 08:38:44;;;;;;;7.05;3.80;;;;;;;;;;5124154;27;20019;-73
2021/10/14 08:41:11;;;;;;;5.32;3.10;;;;;;;;;;5124250;27;20154;-73
2021/10/14 08:43:39;;;;;;;6.63;3.40;;;;;;;;;;5124500;27;20106;-73
2021/10/14 08:46:05;;;;;;;7.47;3.88;;;;;;;;;;5124025;27;20019;-73
2021/10/14 08:48:32;;;;;;;7.43;3.47;;;;;;;;;;5122421;27;20612;-73
2021/10/14 08:50:58;;;;;;;6.18;3.20;;;;;;;;;;5124121;27;20096;-73
2021/10/14 08:53:24;;;;;;;7.68;3.50;;;;;;;;;;5123951;27;20011;-73
2021/10/14 08:55:50;;;;;;;5.30;2.88;;;;;;;;;;5124113;27;20035;-73
2021/10/14 08:58:16;;;;;;;3.30;2.50;;;;;;;;;;5123792;27;20050;-73
2021/10/14 09:01:03;;;;;;;3.78;2.30;;;;;;;;;;5122263;27;20106;-73
2021/10/14 09:03:30;;;;;;;3.85;2.60;;;;;;;;;;5125615;27;20019;-73
2021/10/14 09:05:56;;;;;;;5.25;2.92;;;;;;;;;;5143922;27;20215;-73
2021/10/14 09:08:35;;;;;;;4.97;2.60;;;;;;;;;;5143786;27;20026;-73
2021/10/14 09:11:22;;;;;;;7.57;4.53;;;;;;;;;;5146124;27;20023;-73
2021/10/14 09:13:53;;;;;;;16.17;7.57;;;;;;;;;;5149402;27;20037;-73
2021/10/14 09:16:25;;;;;;;17.83;9.38;;;;;;;;;;5148103;27;20015;-73
2021/10/14 09:18:52;;;;;;;12.60;6.90;;;;;;;;;;5149357;27;20030;-73
2021/10/14 09:21:25;;;;;;;11.93;6.85;;;;;;;;;;5149105;27;20064;-73
2021/10/14 09:23:52;;;;;;;11.13;6.93;;;;;;;;;;5149145;27;20562;-73
2021/10/14 09:26:32;;;;;;;7.70;5.90;;;;;;;;;;5147933;27;20064;-73
2021/10/14 09:29:06;;;;;;;6.10;4.57;;;;;;;;;;5149233;27;20030;-73
2021/10/14 09:31:45;;;;;;;5.95;4.00;;;;;;;;;;5149218;27;20034;-73
2021/10/14 09:34:24;;;;;;;8.68;4.43;;;;;;;;;;5149035;27;20120;-73
2021/10/14 09:36:50;;;;;;;5.75;4.38;;;;;;;;;;5149114;27;20034;-73
2021/10/14 09:39:16;;;;;;;5.72;4.03;;;;;;;;;;5147134;27;20042;-73
2021/10/14 09:41:43;;;;;;;5.40;4.35;;;;;;;;;;5148956;27;20046;-73
2021/10/14 09:44:17;;;;;;;7.07;5.32;;;;;;;;;;5148287;27;20569;-73
2021/10/14 09:46:43;;;;;;;6.85;4.90;;;;;;;;;;5148533;27;20033;-73
2021/10/14 09:49:11;;;;;;;7.57;5.03;;;;;;;;;;5146488;27;20421;-73
2021/10/14 09:51:37;;;;;;;7.55;4.60;;;;;;;;;;5147929;27;20051;-73
2021/10/14 09:54:04;;;;;;;5.07;4.50;;;;;;;;;;5148213;27;20099;-73
2021/10/14 09:56:30;;;;;;;5.47;4.20;;;;;;;;;;5148775;27;20053;-73
2021/10/14 09:58:58;;;;;;;7.28;4.65;;;;;;;;;;5144824;27;20386;-73
2021/10/14 10:01:25;;;;;;;7.28;4.00;;;;;;;;;;5148238;27;20570;-73
2021/10/14 10:03:52;;;;;;;6.43;4.60;;;;;;;;;;5146722;27;20390;-73
2021/10/14 10:06:23;;;;;;;7.85;4.35;;;;;;;;;;5146614;27;20033;-73
2021/10/14 10:08:50;;;;;;;5.50;4.72;;;;;;;;;;5146419;27;20406;-73
2021/10/14 10:11:17;;;;;;;7.13;5.40;;;;;;;;;;5147649;27;20467;-73
2021/10/14 10:13:46;;;;;;;10.60;6.00;;;;;;;;;;5148001;27;20059;-73
2021/10/14 10:16:13;;;;;;;9.23;6.20;;;;;;;;;;5148570;27;20031;-73
2021/10/14 10:18:41;;;;;;;7.75;4.60;;;;;;;;;;5146529;27;20079;-73
2021/10/14 10:21:09;;;;;;;7.82;5.07;;;;;;;;;;5147909;27;20034;-73
2021/10/14 10:23:49;;;;;;;9.07;5.43;;;;;;;;;;5147125;27;20394;-73
2021/10/14 10:26:36;;;;;;;10.25;5.53;;;;;;;;;;5148026;27;20412;-73
2021/10/14 10:29:15;;;;;;;11.07;6.03;;;;;;;;;;5148083;27;20105;-73
2021/10/14 10:31:56;;;;;;;10.68;6.28;;;;;;;;;;5147551;27;20061;-73
2021/10/14 10:34:37;;;;;;;7.50;5.13;;;;;;;;;;5147477;27;20023;-73
2021/10/14 10:37:17;;;;;;;7.88;5.20;;;;;;;;;;5147803;27;20209;-73
2021/10/14 10:39:48;;;;;;;6.00;4.28;;;;;;;;;;5147740;27;20023;-73
2021/10/14 10:42:17;;;;;;;9.05;4.60;;;;;;;;;;5148137;27;20026;-73
2021/10/14 10:44:44;;;;;;;7.68;4.20;;;;;;;;;;5145401;27;20022;-73
2021/10/14 10:47:28;;;;;;;7.93;4.40;;;;;;;;;;5148007;27;20026;-73
2021/10/14 10:49:55;;;;;;;6.93;4.20;;;;;;;;;;5147279;27;20030;-73
2021/10/14 10:52:31;;;;;;;6.20;3.80;;;;;;;;;;5147326;27;20031;-73
2021/10/14 10:54:59;;;;;;;7.25;4.32;;;;;;;;;;5147171;27;20087;-73
2021/10/14 10:57:48;;;;;;;7.20;4.50;;;;;;;;;;5145305;27;20038;-73
2021/10/14 11:00:15;;;;;;;7.90;4.18;;;;;;;;;;5147371;27;20019;-73
2021/10/14 11:02:41;;;;;;;9.20;4.30;;;;;;;;;;5147446;27;20046;-73
2021/10/14 11:05:07;;;;;;;7.60;4.28;;;;;;;;;;5146899;27;20075;-73
2021/10/14 11:07:34;;;;;;;8.52;4.28;;;;;;;;;;5147103;27;20019;-73
2021/10/14 11:10:00;;;;;;;7.13;3.75;;;;;;;;;;5145674;27;20019;-73
2021/10/14 11:12:26;;;;;;;6.93;4.70;;;;;;;;;;5147012;27;20046;-73
2021/10/14 11:14:52;;;;;;;7.43;5.00;;;;;;;;;;5146986;27;20015;-73
2021/10/14 11:17:18;;;;;;;7.78;4.93;;;;;;;;;;5146729;27;20244;-74
2021/10/14 11:19:45;;;;;;;7.60;5.75;;;;;;;;;;5147194;27;20478;-73
2021/10/14 11:22:15;;;;;;;9.25;6.18;;;;;;;;;;5145259;27;20019;-73
2021/10/14 11:24:45;;;;;;;9.35;4.97;;;;;;;;;;5147138;27;20025;-73
2021/10/14 11:27:15;;;;;;;6.65;4.57;;;;;;;;;;5146387;27;20473;-73
2021/10/14 11:29:44;;;;;;;9.52;4.72;;;;;;;;;;5145517;27;20027;-73
2021/10/14 11:32:17;;;;;;;7.75;4.60;;;;;;;;;;5146680;27;20035;-73
2021/10/14 11:34:43;;;;;;;8.10;4.85;;;;;;;;;;5146336;27;20037;-73
2021/10/14 11:37:10;;;;;;;10.25;4.75;;;;;;;;;;5146427;27;20493;-73
2021/10/14 11:39:37;;;;;;;6.20;4.43;;;;;;;;;;5145381;27;20065;-73
2021/10/14 11:42:09;;;;;;;7.43;4.45;;;;;;;;;;5144078;27;20071;-73
2021/10/14 11:44:37;;;;;;;10.02;4.68;;;;;;;;;;5145571;27;20109;-73
2021/10/14 11:47:08;;;;;;;7.20;5.15;;;;;;;;;;5145611;27;20010;-73
2021/10/14 11:49:35;;;;;;;11.43;4.95;;;;;;;;;;5145679;27;20079;-73
2021/10/14 11:52:06;;;;;;;9.35;5.28;;;;;;;;;;5143798;27;20083;-73
2021/10/14 11:54:35;;;;;;;10.77;4.95;;;;;;;;;;5145688;27;20015;-73
2021/10/14 11:57:02;;;;;;;9.23;5.57;;;;;;;;;;5145564;27;20103;-73
2021/10/14 11:59:29;;;;;;;9.43;5.22;;;;;;;;;;5141851;27;20046;-73
2021/10/14 12:02:12;;;;;;;11.18;5.53;;;;;;;;;;5124530;27;20079;-73
2021/10/14 12:05:01;;;;;;;8.00;5.65;;;;;;;;;;5122858;27;20023;-73
2021/10/14 12:07:28;;;;;;;7.13;4.90;;;;;;;;;;5124559;27;20031;-73
2021/10/14 12:09:55;;;;;;;9.85;4.95;;;;;;;;;;5124447;27;20019;-73
2021/10/14 12:12:22;;;;;;;7.00;5.07;;;;;;;;;;5124516;27;20034;-73
2021/10/14 12:14:58;;;;;;;10.95;5.70;;;;;;;;;;5124824;27;20045;-73
2021/10/14 12:17:35;;;;;;;9.43;5.45;;;;;;;;;;5124136;27;20474;-73
2021/10/14 12:20:09;;;;;;;10.75;5.82;;;;;;;;;;5124286;27;20023;-73
2021/10/14 12:22:39;;;;;;;10.90;5.57;;;;;;;;;;5128090;27;20034;-73
2021/10/14 12:25:06;;;;;;;8.32;5.28;;;;;;;;;;5125941;27;20029;-73
2021/10/14 12:27:51;;;;;;;11.38;6.05;;;;;;;;;;5124205;27;20110;-73
2021/10/14 12:30:21;;;;;;;8.02;5.53;;;;;;;;;;5122824;27;20090;-73
2021/10/14 12:32:48;;;;;;;10.00;5.70;;;;;;;;;;5124152;27;20031;-73
2021/10/14 12:35:14;;;;;;;11.25;5.63;;;;;;;;;;5124843;27;20042;-73
2021/10/14 12:37:41;;;;;;;14.18;6.20;;;;;;;;;;5123980;27;20305;-73
2021/10/14 12:40:14;;;;;;;13.73;6.00;;;;;;;;;;5124387;27;20367;-73
2021/10/14 12:45:15;;;;;;;10.07;6.20;;;;;;;;;;5124223;27;20023;-73
2021/10/14 12:47:45;;;;;;;18.42;6.22;;;;;;;;;;5146381;27;20490;-73
2021/10/14 12:50:19;;;;;;;9.90;5.63;;;;;;;;;;5146722;27;20119;-73
2021/10/14 12:52:45;;;;;;;12.48;5.95;;;;;;;;;;5144496;27;20034;-73
2021/10/14 12:55:13;;;;;;;9.07;5.80;;;;;;;;;;5149319;27;20015;-73
2021/10/14 12:57:39;;;;;;;9.05;5.90;;;;;;;;;;5148922;27;20046;-73
2021/10/14 13:00:06;;;;;;;11.35;5.15;;;;;;;;;;5149056;27;20010;-73
2021/10/14 13:02:32;;;;;;;9.77;5.63;;;;;;;;;;5147194;27;20019;-73
2021/10/14 13:04:58;;;;;;;7.20;4.72;;;;;;;;;;5149391;27;20448;-73
2021/10/14 13:07:25;;;;;;;6.78;5.05;;;;;;;;;;5150071;27;20466;-73
2021/10/14 13:09:52;;;;;;;8.90;5.10;;;;;;;;;;5149241;27;20031;-73
2021/10/14 13:12:18;;;;;;;13.70;6.10;;;;;;;;;;5149391;27;20509;-73
2021/10/14 13:14:44;;;;;;;11.88;6.03;;;;;;;;;;5149007;27;20525;-73
2021/10/14 13:17:10;;;;;;;19.52;7.18;;;;;;;;;;5148001;27;20026;-73
2021/10/14 13:19:36;;;;;;;15.15;8.02;;;;;;;;;;5148883;27;20022;-73
2021/10/14 13:22:02;;;;;;;11.65;6.68;;;;;;;;;;5149427;27;20058;-73
2021/10/14 13:24:29;;;;;;;8.18;5.35;;;;;;;;;;5149118;27;20046;-73
2021/10/14 13:26:56;;;;;;;10.02;5.60;;;;;;;;;;5148783;27;20025;-73
2021/10/14 13:29:22;;;;;;;10.85;5.35;;;;;;;;;;5148024;27;20022;-73
2021/10/14 13:31:48;;;;;;;10.30;5.97;;;;;;;;;;5146813;27;20572;-73
2021/10/14 13:34:16;;;;;;;7.22;5.60;;;;;;;;;;5148868;27;20038;-72
2021/10/14 13:36:43;;;;;;;10.48;5.63;;;;;;;;;;5148362;27;20019;-73
2021/10/14 13:39:14;;;;;;;13.85;6.07;;;;;;;;;;5147901;27;20022;-73
2021/10/14 13:41:40;;;;;;;8.32;5.72;;;;;;;;;;5148397;27;20027;-73
2021/10/14 13:44:18;;;;;;;11.82;5.90;;;;;;;;;;5146535;27;20022;-73
2021/10/14 13:46:44;;;;;;;10.05;5.20;;;;;;;;;;5148302;27;20118;-73
2021/10/14 13:49:10;;;;;;;8.13;4.63;;;;;;;;;;5147647;27;20019;-73
2021/10/14 13:51:39;;;;;;;7.95;4.50;;;;;;;;;;5147609;27;20038;-73
2021/10/14 13:54:07;;;;;;;8.30;4.78;;;;;;;;;;5139533;27;20011;-73
2021/10/14 13:56:33;;;;;;;12.93;4.55;;;;;;;;;;5139597;27;20035;-73
2021/10/14 13:58:59;;;;;;;9.23;4.82;;;;;;;;;;5137916;27;20152;-73
2021/10/14 14:01:25;;;;;;;9.15;5.60;;;;;;;;;;5139567;27;20015;-73
2021/10/14 14:03:52;;;;;;;7.63;4.40;;;;;;;;;;5143186;27;20480;-73
2021/10/14 14:06:18;;;;;;;6.60;3.50;;;;;;;;;;5141217;27;20407;-73
2021/10/14 14:08:44;;;;;;;6.28;4.57;;;;;;;;;;5145901;27;20547;-73
2021/10/14 14:11:10;;;;;;;11.57;5.15;;;;;;;;;;5147287;27;20406;-73
2021/10/14 14:13:36;;;;;;;7.25;4.30;;;;;;;;;;5147605;27;20021;-73
2021/10/14 14:16:03;;;;;;;7.72;4.07;;;;;;;;;;5146088;27;20082;-73
2021/10/14 14:18:29;;;;;;;7.00;3.30;;;;;;;;;;5146830;27;20023;-73
2021/10/14 14:20:55;;;;;;;6.15;3.22;;;;;;;;;;5147595;27;20018;-73
2021/10/14 14:23:21;;;;;;;9.10;3.50;;;;;;;;;;5146647;27;20023;-73
2021/10/14 14:25:47;;;;;;;8.88;3.83;;;;;;;;;;5147923;27;20102;-73
2021/10/14 14:28:13;;;;;;;14.20;4.45;;;;;;;;;;5147749;27;20027;-73
2021/10/14 14:30:43;;;;;;;12.00;3.95;;;;;;;;;;5145919;27;20015;-73
2021/10/14 14:33:09;;;;;;;6.90;3.70;;;;;;;;;;5147819;27;20027;-73
2021/10/14 14:35:35;;;;;;;7.00;4.35;;;;;;;;;;5147715;27;20027;-72
2021/10/14 14:38:01;;;;;;;7.15;3.35;;;;;;;;;;5147627;27;20027;-72
2021/10/14 14:40:27;;;;;;;8.75;3.47;;;;;;;;;;5147092;27;20027;-73
2021/10/14 14:42:54;;;;;;;11.35;3.90;;;;;;;;;;5147360;27;20019;-73
2021/10/14 14:45:20;;;;;;;7.10;3.65;;;;;;;;;;5146475;27;20109;-73